Time;durP1;ratioP1;P1;durP2;ratioP2;P2;SDS_P1;SDS_P2;PMS_P1;PMS_P2;Temp;Humidity;BMP_temperature;BMP_pressure;BME280_temperature;BME280_humidity;BME280_pressure;Samples;Min_cycle;Max_cycle;Signal;HPM_P1;HPM_P2
2023/04/18 00:01:49;;;;;;;9.77;5.45;;;;;;;;;;5051180;28;20104;-76
2023/04/18 00:04:16;;;;;;;9.50;5.75;;;;;;;;;;5068930;28;20473;-76
2023/04/18 00:06:42;;;;;;;10.00;6.22;;;;;;;;;;5070610;28;20024;-77
2023/04/18 00:09:08;;;;;;;7.95;5.35;;;;;;;;;;5069747;28;20037;-79
2023/04/18 00:11:34;;;;;;;10.38;5.95;;;;;;;;;;5052144;28;20059;-80
2023/04/18 00:14:02;;;;;;;9.93;6.25;;;;;;;;;;5073510;28;20032;-76
2023/04/18 00:16:28;;;;;;;7.50;5.80;;;;;;;;;;5055181;28;20049;-76
2023/04/18 00:18:55;;;;;;;13.02;6.57;;;;;;;;;;5072140;28;20039;-78
2023/04/18 00:21:22;;;;;;;9.07;5.35;;;;;;;;;;5071118;28;20127;-75
2023/04/18 00:23:48;;;;;;;10.82;5.47;;;;;;;;;;5072902;28;20491;-75
2023/04/18 00:26:14;;;;;;;9.30;5.55;;;;;;;;;;5056382;28;20377;-75
2023/04/18 00:28:40;;;;;;;7.55;5.25;;;;;;;;;;5069987;28;20029;-76
2023/04/18 00:31:06;;;;;;;12.15;6.30;;;;;;;;;;5072132;28;20099;-79
2023/04/18 00:33:33;;;;;;;7.20;5.45;;;;;;;;;;5071385;28;20029;-75
2023/04/18 00:35:59;;;;;;;7.13;5.00;;;;;;;;;;5071286;28;20488;-76
2023/04/18 00:38:25;;;;;;;8.35;5.50;;;;;;;;;;5070914;28;20365;-79
2023/04/18 00:40:51;;;;;;;8.60;5.43;;;;;;;;;;5069225;28;20070;-76
2023/04/18 00:43:17;;;;;;;8.85;5.25;;;;;;;;;;5051473;28;20025;-76
2023/04/18 00:45:44;;;;;;;6.93;4.55;;;;;;;;;;5052675;28;20021;-75
2023/04/18 00:48:10;;;;;;;8.07;5.45;;;;;;;;;;5060576;28;20021;-78
2023/04/18 00:50:36;;;;;;;7.10;5.07;;;;;;;;;;5048991;28;20024;-76
2023/04/18 00:53:02;;;;;;;9.90;5.47;;;;;;;;;;5031265;28;20431;-79
2023/04/18 00:55:29;;;;;;;7.55;5.53;;;;;;;;;;5031521;28;20021;-78
2023/04/18 00:57:55;;;;;;;10.13;5.05;;;;;;;;;;5050332;28;20028;-78
2023/04/18 01:00:21;;;;;;;11.13;6.53;;;;;;;;;;5049919;28;20017;-75
2023/04/18 01:02:51;;;;;;;10.05;5.43;;;;;;;;;;5031181;28;20021;-76
2023/04/18 01:05:17;;;;;;;7.75;4.88;;;;;;;;;;5035316;28;20039;-79
2023/04/18 01:07:44;;;;;;;7.80;5.03;;;;;;;;;;5053961;28;20036;-79
2023/04/18 01:10:10;;;;;;;9.82;6.40;;;;;;;;;;5053346;28;20079;-80
2023/04/18 01:12:36;;;;;;;8.50;5.32;;;;;;;;;;5036025;28;20037;-78
2023/04/18 01:15:03;;;;;;;11.65;5.60;;;;;;;;;;5052130;28;20033;-77
2023/04/18 01:17:29;;;;;;;13.98;4.90;;;;;;;;;;5053306;28;20033;-79
2023/04/18 01:19:55;;;;;;;8.23;5.85;;;;;;;;;;5051592;28;20044;-77
2023/04/18 01:22:21;;;;;;;11.77;6.47;;;;;;;;;;5034695;28;20033;-80
2023/04/18 01:24:47;;;;;;;7.00;5.13;;;;;;;;;;5030656;28;20638;-78
2023/04/18 01:27:14;;;;;;;9.20;4.57;;;;;;;;;;5030526;28;20306;-78
2023/04/18 01:29:40;;;;;;;9.93;5.85;;;;;;;;;;5031042;28;20021;-78
2023/04/18 01:32:06;;;;;;;7.65;5.75;;;;;;;;;;5047717;28;20029;-77
2023/04/18 01:34:32;;;;;;;8.93;6.18;;;;;;;;;;5030920;28;20029;-79
2023/04/18 01:36:58;;;;;;;8.40;5.47;;;;;;;;;;5048820;28;20021;-79
2023/04/18 01:39:24;;;;;;;9.73;5.95;;;;;;;;;;5047939;28;20044;-77
2023/04/18 01:41:50;;;;;;;6.72;5.72;;;;;;;;;;5033672;28;20481;-78
2023/04/18 01:44:16;;;;;;;11.23;5.72;;;;;;;;;;5051238;28;20035;-77
2023/04/18 01:46:42;;;;;;;9.93;6.53;;;;;;;;;;5034309;28;20124;-78
2023/04/18 01:49:11;;;;;;;10.35;6.05;;;;;;;;;;5054088;28;20063;-77
2023/04/18 01:51:41;;;;;;;7.40;4.90;;;;;;;;;;5055627;28;20538;-77
2023/04/18 01:54:07;;;;;;;10.52;6.22;;;;;;;;;;5054808;28;20029;-78
2023/04/18 01:56:33;;;;;;;8.50;5.25;;;;;;;;;;5054935;28;20060;-78
2023/04/18 01:58:59;;;;;;;11.40;5.57;;;;;;;;;;5054818;28;20113;-78
2023/04/18 02:01:25;;;;;;;8.98;6.30;;;;;;;;;;5052544;28;20032;-78
2023/04/18 02:03:52;;;;;;;9.85;6.63;;;;;;;;;;5053937;28;20056;-77
2023/04/18 02:06:18;;;;;;;10.23;5.88;;;;;;;;;;5033817;28;20250;-74
2023/04/18 02:08:44;;;;;;;9.68;6.05;;;;;;;;;;5051395;28;20278;-73
2023/04/18 02:11:10;;;;;;;13.20;6.45;;;;;;;;;;5050940;28;20578;-74
2023/04/18 02:13:36;;;;;;;9.35;5.60;;;;;;;;;;5050698;28;20061;-78
2023/04/18 02:16:02;;;;;;;11.13;6.35;;;;;;;;;;5051481;28;20070;-78
2023/04/18 02:18:29;;;;;;;10.77;6.43;;;;;;;;;;5033776;28;20127;-78
2023/04/18 02:20:55;;;;;;;9.73;6.95;;;;;;;;;;5050508;28;20024;-77
2023/04/18 02:23:21;;;;;;;11.60;6.65;;;;;;;;;;5050625;28;20029;-78
2023/04/18 02:25:47;;;;;;;11.60;5.93;;;;;;;;;;5032609;28;20116;-78
2023/04/18 02:28:13;;;;;;;15.07;7.68;;;;;;;;;;5050179;28;20078;-78
2023/04/18 02:30:42;;;;;;;9.32;7.40;;;;;;;;;;5032722;28;20025;-74
2023/04/18 02:33:11;;;;;;;8.73;5.70;;;;;;;;;;5050198;28;20032;-77
2023/04/18 02:35:39;;;;;;;8.70;5.85;;;;;;;;;;5050991;28;20090;-77
2023/04/18 02:38:05;;;;;;;11.13;6.22;;;;;;;;;;5053403;28;20071;-74
2023/04/18 02:40:31;;;;;;;13.13;7.15;;;;;;;;;;5054282;28;20017;-77
2023/04/18 02:42:57;;;;;;;10.60;7.05;;;;;;;;;;5054359;28;20025;-78
2023/04/18 02:45:23;;;;;;;11.65;7.07;;;;;;;;;;5054765;28;20017;-77
2023/04/18 02:47:49;;;;;;;11.20;6.90;;;;;;;;;;5054882;28;20082;-77
2023/04/18 02:50:15;;;;;;;13.70;7.45;;;;;;;;;;5055479;28;20028;-75
2023/04/18 02:52:42;;;;;;;11.80;6.53;;;;;;;;;;5055710;28;20017;-77
2023/04/18 02:55:08;;;;;;;9.32;6.40;;;;;;;;;;5055029;28;20021;-78
2023/04/18 02:57:34;;;;;;;13.15;7.47;;;;;;;;;;5037810;28;20021;-78
2023/04/18 03:00:00;;;;;;;12.60;7.90;;;;;;;;;;5054690;28;20459;-78
2023/04/18 03:02:26;;;;;;;15.45;7.88;;;;;;;;;;5054045;28;20072;-78
2023/04/18 03:04:53;;;;;;;11.57;7.45;;;;;;;;;;5054253;28;20023;-78
2023/04/18 03:07:18;;;;;;;13.20;8.10;;;;;;;;;;5054336;28;20024;-77
2023/04/18 03:09:45;;;;;;;10.80;7.57;;;;;;;;;;5052573;28;20385;-77
2023/04/18 03:12:11;;;;;;;11.80;7.28;;;;;;;;;;5053195;28;20028;-76
2023/04/18 03:14:36;;;;;;;12.98;7.40;;;;;;;;;;5053738;28;20032;-76
2023/04/18 03:17:03;;;;;;;14.18;8.75;;;;;;;;;;5053434;28;20436;-78
2023/04/18 03:19:30;;;;;;;12.73;7.97;;;;;;;;;;5034877;28;20269;-77
2023/04/18 03:21:56;;;;;;;14.80;8.68;;;;;;;;;;5053552;28;20108;-78
2023/04/18 03:24:24;;;;;;;17.70;7.68;;;;;;;;;;5052934;28;20120;-77
2023/04/18 03:26:50;;;;;;;15.27;6.78;;;;;;;;;;5054048;28;20281;-77
2023/04/18 03:29:16;;;;;;;12.27;6.80;;;;;;;;;;5053384;28;20334;-78
2023/04/18 03:31:42;;;;;;;14.23;7.78;;;;;;;;;;5054074;28;20029;-78
2023/04/18 03:34:11;;;;;;;13.30;8.00;;;;;;;;;;5054300;28;20056;-77
2023/04/18 03:36:37;;;;;;;12.27;7.30;;;;;;;;;;5054969;28;20024;-78
2023/04/18 03:39:03;;;;;;;13.82;8.35;;;;;;;;;;5053945;28;20040;-78
2023/04/18 03:41:29;;;;;;;13.55;8.65;;;;;;;;;;5053563;28;20033;-78
2023/04/18 03:43:55;;;;;;;13.65;7.53;;;;;;;;;;5053513;28;20087;-77
2023/04/18 03:46:21;;;;;;;15.48;8.02;;;;;;;;;;5052929;28;20425;-78
2023/04/18 03:48:47;;;;;;;14.63;7.88;;;;;;;;;;5034993;28;20437;-78
2023/04/18 03:51:14;;;;;;;13.23;7.93;;;;;;;;;;5035104;28;20053;-77
2023/04/18 03:53:40;;;;;;;13.38;7.20;;;;;;;;;;5052628;28;20025;-76
2023/04/18 03:56:06;;;;;;;14.02;7.60;;;;;;;;;;5035038;28;20021;-77
2023/04/18 03:58:32;;;;;;;17.40;8.52;;;;;;;;;;5052957;28;20044;-78
2023/04/18 04:00:59;;;;;;;16.60;7.70;;;;;;;;;;5035385;28;20063;-77
2023/04/18 04:03:26;;;;;;;16.50;8.45;;;;;;;;;;5052837;28;20024;-78
2023/04/18 04:05:53;;;;;;;12.95;8.18;;;;;;;;;;5034293;28;20024;-78
2023/04/18 04:08:20;;;;;;;12.20;7.30;;;;;;;;;;5051991;28;20035;-77
2023/04/18 04:10:46;;;;;;;14.48;9.15;;;;;;;;;;5052827;28;20017;-77
2023/04/18 04:13:12;;;;;;;12.00;7.72;;;;;;;;;;5034375;28;20397;-78
2023/04/18 04:15:40;;;;;;;14.98;7.70;;;;;;;;;;5034972;28;20056;-74
2023/04/18 04:18:07;;;;;;;11.85;7.85;;;;;;;;;;5053156;28;20028;-74
2023/04/18 04:20:33;;;;;;;13.73;8.35;;;;;;;;;;5053210;28;20025;-74
2023/04/18 04:23:00;;;;;;;19.33;9.48;;;;;;;;;;5053184;28;20059;-75
2023/04/18 04:25:28;;;;;;;18.30;8.25;;;;;;;;;;5052883;28;20021;-74
2023/04/18 04:27:54;;;;;;;15.85;9.40;;;;;;;;;;5052232;28;20029;-74
2023/04/18 04:30:21;;;;;;;15.32;10.63;;;;;;;;;;5053585;28;20386;-74
2023/04/18 04:32:47;;;;;;;15.82;8.77;;;;;;;;;;5035114;28;20035;-74
2023/04/18 04:35:13;;;;;;;18.58;9.57;;;;;;;;;;5053282;28;20405;-74
2023/04/18 04:37:42;;;;;;;17.50;8.90;;;;;;;;;;5034426;28;20064;-74
2023/04/18 04:40:08;;;;;;;;;;;;;;;;;;5034587;28;20090;-75
2023/04/18 04:42:35;;;;;;;17.45;8.20;;;;;;;;;;5051756;28;19905;-74
2023/04/18 04:45:01;;;;;;;12.45;8.13;;;;;;;;;;5035916;28;20021;-74
2023/04/18 04:47:27;;;;;;;14.60;7.72;;;;;;;;;;5055873;28;20036;-74
2023/04/18 04:49:53;;;;;;;14.10;8.18;;;;;;;;;;5053994;28;20032;-74
2023/04/18 04:52:19;;;;;;;18.02;9.43;;;;;;;;;;5037543;28;20025;-74
2023/04/18 04:54:46;;;;;;;17.77;7.60;;;;;;;;;;5037866;28;20029;-74
2023/04/18 04:57:12;;;;;;;16.15;9.02;;;;;;;;;;5038296;28;20021;-74
2023/04/18 04:59:38;;;;;;;16.95;9.95;;;;;;;;;;5053288;28;20037;-75
2023/04/18 05:02:04;;;;;;;13.93;7.82;;;;;;;;;;5033950;28;20060;-74
2023/04/18 05:04:30;;;;;;;16.50;8.10;;;;;;;;;;5033734;28;20064;-75
2023/04/18 05:06:57;;;;;;;35.67;11.15;;;;;;;;;;5033976;28;20052;-74
2023/04/18 05:09:23;;;;;;;15.35;9.15;;;;;;;;;;5051787;28;20230;-76
2023/04/18 05:11:49;;;;;;;18.77;8.48;;;;;;;;;;5033818;28;20323;-75
2023/04/18 05:14:16;;;;;;;15.82;9.20;;;;;;;;;;5051566;28;20574;-73
2023/04/18 05:16:42;;;;;;;19.67;9.73;;;;;;;;;;5032975;28;20449;-74
2023/04/18 05:19:08;;;;;;;17.33;10.02;;;;;;;;;;5032966;28;20045;-75
2023/04/18 05:21:34;;;;;;;18.58;10.00;;;;;;;;;;5032712;28;20078;-75
2023/04/18 05:24:00;;;;;;;14.77;9.07;;;;;;;;;;5033295;28;20028;-78
2023/04/18 05:26:26;;;;;;;15.25;8.05;;;;;;;;;;5033682;28;20021;-77
2023/04/18 05:28:52;;;;;;;16.75;9.18;;;;;;;;;;5052478;28;20060;-78
2023/04/18 05:31:18;;;;;;;19.80;9.30;;;;;;;;;;5051481;28;20108;-75
2023/04/18 05:33:44;;;;;;;20.80;10.40;;;;;;;;;;5033388;28;20557;-76
2023/04/18 05:36:11;;;;;;;15.23;8.13;;;;;;;;;;5033929;28;20033;-76
2023/04/18 05:38:37;;;;;;;21.70;9.82;;;;;;;;;;5033064;28;20033;-75
2023/04/18 05:41:03;;;;;;;17.67;8.70;;;;;;;;;;5033499;28;20013;-76
2023/04/18 05:43:29;;;;;;;18.50;9.10;;;;;;;;;;5033550;28;20029;-75
2023/04/18 05:45:55;;;;;;;17.20;8.25;;;;;;;;;;5051899;28;20094;-78
2023/04/18 05:48:22;;;;;;;15.13;9.40;;;;;;;;;;5070391;28;20021;-78
2023/04/18 05:50:48;;;;;;;17.20;8.38;;;;;;;;;;5070672;28;20488;-76
2023/04/18 05:53:14;;;;;;;15.88;8.52;;;;;;;;;;5051170;28;20500;-78
2023/04/18 05:55:40;;;;;;;15.77;9.02;;;;;;;;;;5069340;28;20196;-77
2023/04/18 05:58:06;;;;;;;17.25;9.35;;;;;;;;;;5051208;28;20645;-77
2023/04/18 06:00:32;;;;;;;16.85;9.43;;;;;;;;;;5050967;28;20542;-77
2023/04/18 06:02:58;;;;;;;16.92;10.48;;;;;;;;;;5069759;28;20028;-75
2023/04/18 06:05:24;;;;;;;17.58;9.65;;;;;;;;;;5069517;28;20025;-76
2023/04/18 06:07:50;;;;;;;17.45;9.00;;;;;;;;;;5050620;28;20108;-78
2023/04/18 06:10:16;;;;;;;15.63;8.25;;;;;;;;;;5069098;28;20037;-76
2023/04/18 06:12:42;;;;;;;16.80;9.38;;;;;;;;;;5053132;28;20038;-77
2023/04/18 06:15:09;;;;;;;15.88;8.75;;;;;;;;;;5070406;28;20072;-76
2023/04/18 06:17:35;;;;;;;14.90;9.07;;;;;;;;;;5070995;28;20063;-77
2023/04/18 06:20:02;;;;;;;18.70;8.75;;;;;;;;;;5053475;28;20028;-76
2023/04/18 06:22:28;;;;;;;15.00;8.50;;;;;;;;;;5071363;28;20027;-77
2023/04/18 06:24:54;;;;;;;17.85;8.55;;;;;;;;;;5070774;28;20025;-77
2023/04/18 06:27:20;;;;;;;19.95;9.57;;;;;;;;;;5053093;28;20116;-77
2023/04/18 06:29:46;;;;;;;16.60;8.45;;;;;;;;;;5071208;28;20020;-77
2023/04/18 06:32:13;;;;;;;17.73;9.52;;;;;;;;;;5052967;28;20032;-75
2023/04/18 06:34:39;;;;;;;17.98;10.15;;;;;;;;;;5053064;28;20025;-76
2023/04/18 06:37:05;;;;;;;16.88;9.80;;;;;;;;;;5064706;28;20027;-77
2023/04/18 06:39:31;;;;;;;15.55;9.52;;;;;;;;;;5052250;28;20475;-76
2023/04/18 06:41:57;;;;;;;21.58;10.27;;;;;;;;;;5067202;28;20056;-75
2023/04/18 06:44:23;;;;;;;17.80;9.57;;;;;;;;;;5051736;28;20103;-76
2023/04/18 06:46:49;;;;;;;20.48;10.82;;;;;;;;;;5051655;28;20163;-76
2023/04/18 06:49:15;;;;;;;17.35;9.40;;;;;;;;;;5051519;28;20536;-77
2023/04/18 06:51:41;;;;;;;16.95;8.63;;;;;;;;;;5050993;28;20120;-75
2023/04/18 06:54:07;;;;;;;18.70;10.50;;;;;;;;;;5033148;28;20053;-75
2023/04/18 06:56:33;;;;;;;19.55;11.57;;;;;;;;;;5051506;28;20477;-76
2023/04/18 06:58:59;;;;;;;18.63;10.13;;;;;;;;;;5033517;28;20095;-77
2023/04/18 07:01:25;;;;;;;18.65;10.82;;;;;;;;;;5050706;28;20096;-78
2023/04/18 07:03:51;;;;;;;17.25;9.88;;;;;;;;;;5050223;28;20059;-76
2023/04/18 07:06:17;;;;;;;19.10;10.85;;;;;;;;;;5032283;28;20021;-75
2023/04/18 07:08:43;;;;;;;19.77;9.70;;;;;;;;;;5050113;28;20025;-75
2023/04/18 07:11:12;;;;;;;20.08;10.55;;;;;;;;;;5051364;28;20436;-77
2023/04/18 07:13:38;;;;;;;18.52;10.65;;;;;;;;;;5033107;28;20027;-76
2023/04/18 07:16:04;;;;;;;19.20;10.25;;;;;;;;;;5032766;28;20485;-75
2023/04/18 07:18:30;;;;;;;21.50;9.85;;;;;;;;;;5050734;28;20199;-77
2023/04/18 07:20:56;;;;;;;16.92;10.10;;;;;;;;;;5044208;28;20025;-77
2023/04/18 07:23:23;;;;;;;20.60;10.27;;;;;;;;;;5074259;28;20106;-75
2023/04/18 07:25:49;;;;;;;23.77;10.57;;;;;;;;;;5056301;28;20059;-76
2023/04/18 07:28:15;;;;;;;21.73;11.93;;;;;;;;;;5074685;28;20025;-76
2023/04/18 07:30:41;;;;;;;16.52;9.30;;;;;;;;;;5055811;28;20166;-75
2023/04/18 07:33:07;;;;;;;21.40;10.35;;;;;;;;;;5058454;28;20163;-75
2023/04/18 07:35:34;;;;;;;17.45;10.18;;;;;;;;;;5057454;28;20028;-77
2023/04/18 07:38:00;;;;;;;20.98;10.75;;;;;;;;;;5073714;28;20067;-75
2023/04/18 07:40:26;;;;;;;19.80;10.18;;;;;;;;;;5075368;28;20064;-75
2023/04/18 07:42:52;;;;;;;13.60;8.43;;;;;;;;;;5073306;28;20021;-75
2023/04/18 07:45:18;;;;;;;19.58;10.18;;;;;;;;;;5055001;28;20596;-75
2023/04/18 07:47:44;;;;;;;20.13;11.45;;;;;;;;;;5072936;28;20084;-75
2023/04/18 07:50:11;;;;;;;24.15;11.63;;;;;;;;;;5055037;28;20518;-75
2023/04/18 07:52:37;;;;;;;22.70;12.07;;;;;;;;;;5073248;28;20384;-75
2023/04/18 07:55:03;;;;;;;21.63;11.18;;;;;;;;;;5072757;28;20024;-77
2023/04/18 07:57:29;;;;;;;19.23;11.90;;;;;;;;;;5073799;28;20029;-75
2023/04/18 07:59:55;;;;;;;17.85;10.55;;;;;;;;;;5054870;28;20119;-75
2023/04/18 08:02:21;;;;;;;21.33;11.05;;;;;;;;;;5073484;28;20047;-74
2023/04/18 08:04:50;;;;;;;18.73;11.63;;;;;;;;;;5073146;28;20067;-75
2023/04/18 08:07:16;;;;;;;21.83;11.43;;;;;;;;;;5073621;28;20032;-75
2023/04/18 08:09:42;;;;;;;20.58;10.52;;;;;;;;;;5075120;28;20053;-75
2023/04/18 08:12:08;;;;;;;22.02;11.73;;;;;;;;;;5072910;28;20024;-75
2023/04/18 08:14:34;;;;;;;17.90;10.32;;;;;;;;;;5055788;28;20029;-75
2023/04/18 08:17:00;;;;;;;18.88;9.68;;;;;;;;;;5073013;28;20070;-77
2023/04/18 08:19:26;;;;;;;23.35;11.13;;;;;;;;;;5072290;28;20485;-76
2023/04/18 08:21:54;;;;;;;17.17;9.77;;;;;;;;;;5068007;28;20021;-75
2023/04/18 08:24:20;;;;;;;16.00;10.93;;;;;;;;;;5034744;28;20033;-76
2023/04/18 08:26:46;;;;;;;21.92;9.82;;;;;;;;;;5047354;28;20047;-76
2023/04/18 08:29:12;;;;;;;24.63;11.55;;;;;;;;;;5048208;28;20118;-76
2023/04/18 08:31:39;;;;;;;15.85;9.88;;;;;;;;;;5051604;28;20027;-78
2023/04/18 08:34:05;;;;;;;17.60;10.10;;;;;;;;;;5045485;28;20037;-76
2023/04/18 08:36:31;;;;;;;17.42;10.55;;;;;;;;;;5069551;28;20033;-75
2023/04/18 08:38:57;;;;;;;16.00;9.35;;;;;;;;;;5049693;28;20040;-76
2023/04/18 08:41:23;;;;;;;19.33;10.75;;;;;;;;;;5071006;28;20392;-78
2023/04/18 08:43:49;;;;;;;16.10;9.45;;;;;;;;;;5044344;28;20496;-76
2023/04/18 08:46:15;;;;;;;19.58;9.23;;;;;;;;;;5060371;28;20107;-76
2023/04/18 08:48:41;;;;;;;18.20;9.63;;;;;;;;;;5067985;28;20074;-76
2023/04/18 08:51:08;;;;;;;18.30;9.63;;;;;;;;;;5071611;28;20033;-76
2023/04/18 08:53:34;;;;;;;14.77;8.95;;;;;;;;;;5049932;28;20032;-76
2023/04/18 08:56:00;;;;;;;19.35;10.10;;;;;;;;;;5069798;28;20477;-76
2023/04/18 08:58:26;;;;;;;15.23;9.30;;;;;;;;;;5070068;28;20032;-76
2023/04/18 09:00:55;;;;;;;17.35;8.90;;;;;;;;;;5050821;28;20028;-77
2023/04/18 09:03:41;;;;;;;20.50;10.43;;;;;;;;;;5068931;28;20110;-76
2023/04/18 09:06:07;;;;;;;20.25;9.63;;;;;;;;;;5050988;28;20476;-75
2023/04/18 09:08:34;;;;;;;16.02;8.65;;;;;;;;;;5050421;28;20032;-75
2023/04/18 09:11:19;;;;;;;15.68;9.35;;;;;;;;;;5051540;28;20017;-75
2023/04/18 09:13:46;;;;;;;19.13;9.82;;;;;;;;;;5069126;28;20050;-75
2023/04/18 09:16:13;;;;;;;16.75;8.52;;;;;;;;;;5070226;28;20040;-76
2023/04/18 09:18:43;;;;;;;16.35;9.05;;;;;;;;;;5074173;28;20066;-77
2023/04/18 09:21:18;;;;;;;17.42;9.60;;;;;;;;;;5067631;28;20374;-76
2023/04/18 09:23:49;;;;;;;18.42;8.75;;;;;;;;;;5034204;28;20033;-78
2023/04/18 09:26:24;;;;;;;16.33;9.32;;;;;;;;;;5036518;28;20024;-77
2023/04/18 09:28:51;;;;;;;11.48;8.40;;;;;;;;;;5033586;28;20025;-76
2023/04/18 09:31:17;;;;;;;14.10;9.30;;;;;;;;;;5040958;28;20096;-75
2023/04/18 09:33:55;;;;;;;14.32;8.93;;;;;;;;;;5059605;28;20021;-76
2023/04/18 09:36:30;;;;;;;18.63;8.15;;;;;;;;;;5035063;28;20079;-76
2023/04/18 09:38:56;;;;;;;14.30;8.60;;;;;;;;;;5053594;28;20025;-77
2023/04/18 09:41:22;;;;;;;17.15;8.82;;;;;;;;;;5058636;28;20025;-77
2023/04/18 09:43:48;;;;;;;16.02;8.35;;;;;;;;;;5055316;28;20025;-77
2023/04/18 09:46:16;;;;;;;15.48;9.02;;;;;;;;;;5031754;28;20032;-73
2023/04/18 09:48:42;;;;;;;10.73;6.82;;;;;;;;;;5052324;28;20028;-75
2023/04/18 09:51:14;;;;;;;13.80;8.55;;;;;;;;;;5034749;28;20026;-76
2023/04/18 09:53:43;;;;;;;11.52;7.65;;;;;;;;;;5041006;28;20048;-77
2023/04/18 09:56:12;;;;;;;11.68;7.78;;;;;;;;;;5038576;28;20029;-76
2023/04/18 09:58:40;;;;;;;15.55;7.18;;;;;;;;;;5036037;28;20043;-75
2023/04/18 10:01:06;;;;;;;13.23;7.22;;;;;;;;;;5058749;28;20032;-77
2023/04/18 10:03:33;;;;;;;12.45;7.30;;;;;;;;;;5061432;28;20020;-78
2023/04/18 10:05:59;;;;;;;12.57;7.07;;;;;;;;;;5041427;28;20092;-79
2023/04/18 10:08:25;;;;;;;13.02;6.70;;;;;;;;;;5046746;28;20079;-76
2023/04/18 10:10:54;;;;;;;10.82;6.75;;;;;;;;;;5064945;28;20048;-76
2023/04/18 10:13:22;;;;;;;11.60;7.43;;;;;;;;;;5062874;28;20037;-80
2023/04/18 10:15:51;;;;;;;11.57;7.32;;;;;;;;;;5061171;28;20055;-79
2023/04/18 10:18:21;;;;;;;11.45;7.13;;;;;;;;;;5060749;28;20036;-78
2023/04/18 10:20:47;;;;;;;10.15;7.53;;;;;;;;;;5045254;28;20611;-75
2023/04/18 10:23:26;;;;;;;11.90;7.45;;;;;;;;;;5062014;28;20036;-78
2023/04/18 10:25:52;;;;;;;12.60;7.72;;;;;;;;;;5083967;28;20070;-77
2023/04/18 10:28:19;;;;;;;10.25;6.85;;;;;;;;;;5063208;28;20469;-77
2023/04/18 10:30:45;;;;;;;12.07;7.03;;;;;;;;;;5064319;28;20044;-75
2023/04/18 10:33:22;;;;;;;15.02;6.65;;;;;;;;;;5065266;28;20358;-77
2023/04/18 10:36:02;;;;;;;14.13;7.70;;;;;;;;;;5063675;28;20032;-75
2023/04/18 10:38:28;;;;;;;16.15;7.63;;;;;;;;;;5077555;28;20371;-76
2023/04/18 10:41:13;;;;;;;12.63;7.53;;;;;;;;;;5058052;28;20028;-77
2023/04/18 10:43:58;;;;;;;17.05;8.27;;;;;;;;;;5062485;28;20020;-77
2023/04/18 10:46:24;;;;;;;15.27;7.75;;;;;;;;;;5058072;28;20035;-77
2023/04/18 10:49:10;;;;;;;12.65;7.50;;;;;;;;;;5036117;28;20049;-76
2023/04/18 10:51:36;;;;;;;14.40;7.80;;;;;;;;;;5058031;28;20055;-79
2023/04/18 10:54:03;;;;;;;10.88;7.28;;;;;;;;;;5041796;28;20040;-77
2023/04/18 10:56:29;;;;;;;13.30;8.35;;;;;;;;;;5037761;28;20028;-77
2023/04/18 10:58:57;;;;;;;14.70;8.32;;;;;;;;;;5037498;28;20766;-79
2023/04/18 11:01:27;;;;;;;14.70;7.07;;;;;;;;;;5057033;28;20049;-77
2023/04/18 11:03:54;;;;;;;21.60;7.53;;;;;;;;;;5060855;28;20036;-77
2023/04/18 11:06:21;;;;;;;12.25;7.85;;;;;;;;;;5063800;28;20029;-77
2023/04/18 11:08:47;;;;;;;11.23;6.72;;;;;;;;;;5045410;28;20020;-78
2023/04/18 11:11:13;;;;;;;13.75;8.20;;;;;;;;;;5047131;28;20127;-77
2023/04/18 11:13:56;;;;;;;12.70;7.35;;;;;;;;;;5063481;28;20029;-77
2023/04/18 11:16:32;;;;;;;11.65;7.10;;;;;;;;;;5062577;28;20118;-78
2023/04/18 11:18:58;;;;;;;12.52;7.35;;;;;;;;;;5044114;28;20139;-77
2023/04/18 11:21:26;;;;;;;11.13;6.80;;;;;;;;;;5046005;28;20017;-77
2023/04/18 11:23:53;;;;;;;9.90;6.53;;;;;;;;;;5057250;28;20059;-78
2023/04/18 11:26:20;;;;;;;14.55;7.22;;;;;;;;;;5074696;28;20408;-76
2023/04/18 11:28:50;;;;;;;14.57;7.35;;;;;;;;;;5061726;28;20033;-77
2023/04/18 11:31:16;;;;;;;10.77;7.05;;;;;;;;;;5057278;28;20029;-75
2023/04/18 11:33:46;;;;;;;13.85;7.45;;;;;;;;;;5072947;28;20028;-74
2023/04/18 11:36:12;;;;;;;11.43;6.90;;;;;;;;;;5055842;28;20035;-75
2023/04/18 11:38:40;;;;;;;10.52;6.78;;;;;;;;;;5058040;28;20040;-74
2023/04/18 11:41:11;;;;;;;11.25;6.57;;;;;;;;;;5077422;28;20070;-82
2023/04/18 11:43:41;;;;;;;12.55;7.28;;;;;;;;;;5079562;28;20025;-75
2023/04/18 11:46:07;;;;;;;13.82;7.10;;;;;;;;;;5071585;28;20042;-75
2023/04/18 11:48:37;;;;;;;13.15;6.70;;;;;;;;;;5053715;28;20029;-77
2023/04/18 11:51:04;;;;;;;10.50;6.72;;;;;;;;;;5033423;28;20029;-76
2023/04/18 11:53:33;;;;;;;11.73;7.28;;;;;;;;;;5058472;28;20040;-76
2023/04/18 11:55:59;;;;;;;12.68;6.97;;;;;;;;;;5043104;28;20013;-76
2023/04/18 11:58:32;;;;;;;12.57;6.78;;;;;;;;;;5049418;28;20040;-76
2023/04/18 12:00:59;;;;;;;10.93;6.97;;;;;;;;;;5050998;28;20020;-77
2023/04/18 12:03:26;;;;;;;15.23;7.18;;;;;;;;;;5057475;28;20335;-76
2023/04/18 12:06:02;;;;;;;10.93;5.45;;;;;;;;;;5060890;28;20008;-75
2023/04/18 12:08:31;;;;;;;11.90;7.65;;;;;;;;;;5062548;28;20039;-77
2023/04/18 12:10:57;;;;;;;11.70;6.88;;;;;;;;;;5047934;28;20217;-75
2023/04/18 12:13:27;;;;;;;13.07;7.78;;;;;;;;;;5050452;28;20037;-76
2023/04/18 12:15:53;;;;;;;12.27;6.65;;;;;;;;;;5046214;28;20400;-78
2023/04/18 12:18:20;;;;;;;13.80;7.00;;;;;;;;;;5063675;28;20043;-77
2023/04/18 12:20:50;;;;;;;13.43;7.10;;;;;;;;;;5047811;28;20021;-77
2023/04/18 12:23:29;;;;;;;10.77;6.57;;;;;;;;;;5069933;28;20060;-78
2023/04/18 12:26:02;;;;;;;15.18;7.43;;;;;;;;;;5043633;28;20229;-77
2023/04/18 12:28:29;;;;;;;12.05;7.25;;;;;;;;;;5063184;28;20029;-79
2023/04/18 12:30:55;;;;;;;11.35;6.40;;;;;;;;;;5043506;28;20029;-77
2023/04/18 12:33:21;;;;;;;10.05;6.40;;;;;;;;;;5042878;28;20025;-76
2023/04/18 12:35:47;;;;;;;10.60;6.53;;;;;;;;;;5044540;28;20041;-78
2023/04/18 12:38:13;;;;;;;12.95;7.60;;;;;;;;;;5046177;28;20028;-78
2023/04/18 12:40:39;;;;;;;11.32;6.88;;;;;;;;;;5042952;28;20079;-78
2023/04/18 12:43:06;;;;;;;17.35;7.22;;;;;;;;;;5059490;28;20021;-78
2023/04/18 12:45:32;;;;;;;13.05;7.35;;;;;;;;;;5062904;28;20088;-76
2023/04/18 12:47:58;;;;;;;14.90;8.25;;;;;;;;;;5062157;28;20032;-78
2023/04/18 12:50:25;;;;;;;10.68;6.55;;;;;;;;;;5064366;28;20091;-77
2023/04/18 12:52:52;;;;;;;12.18;6.70;;;;;;;;;;5058997;28;20085;-77
2023/04/18 12:55:19;;;;;;;12.27;7.10;;;;;;;;;;5062825;28;20039;-79
2023/04/18 12:57:45;;;;;;;10.35;6.68;;;;;;;;;;5065676;28;20212;-79
2023/04/18 13:00:12;;;;;;;11.88;6.90;;;;;;;;;;5065323;28;20344;-78
2023/04/18 13:02:39;;;;;;;8.90;5.43;;;;;;;;;;5065072;28;20025;-78
2023/04/18 13:05:09;;;;;;;9.48;6.22;;;;;;;;;;5062727;28;20064;-78
2023/04/18 13:07:36;;;;;;;9.57;5.95;;;;;;;;;;5063679;28;20076;-78
2023/04/18 13:10:03;;;;;;;10.55;6.53;;;;;;;;;;5065190;28;20316;-76
2023/04/18 13:12:29;;;;;;;10.25;6.47;;;;;;;;;;5061179;28;20033;-78
2023/04/18 13:14:56;;;;;;;10.98;6.95;;;;;;;;;;5056003;28;20144;-76
2023/04/18 13:17:22;;;;;;;10.75;6.65;;;;;;;;;;5038153;28;20052;-78
2023/04/18 13:19:48;;;;;;;13.88;7.80;;;;;;;;;;5037763;28;20037;-77
2023/04/18 13:22:14;;;;;;;10.25;6.43;;;;;;;;;;5040391;28;20021;-78
2023/04/18 13:24:40;;;;;;;11.35;7.03;;;;;;;;;;5043433;28;20025;-77
2023/04/18 13:27:09;;;;;;;10.77;6.28;;;;;;;;;;5038294;28;20029;-77
2023/04/18 13:29:39;;;;;;;12.65;6.85;;;;;;;;;;5038547;28;20027;-76
2023/04/18 13:32:05;;;;;;;15.10;8.30;;;;;;;;;;5055983;28;20373;-77
2023/04/18 13:34:33;;;;;;;12.30;6.90;;;;;;;;;;5055612;28;20100;-78
2023/04/18 13:36:59;;;;;;;9.98;7.03;;;;;;;;;;5039437;28;20512;-78
2023/04/18 13:39:25;;;;;;;11.93;6.53;;;;;;;;;;5060825;28;20029;-77
2023/04/18 13:41:53;;;;;;;13.85;7.05;;;;;;;;;;5053703;28;20013;-76
2023/04/18 13:44:19;;;;;;;10.48;7.40;;;;;;;;;;5051155;28;20028;-77
2023/04/18 13:46:45;;;;;;;13.52;7.38;;;;;;;;;;5051680;28;20091;-76
2023/04/18 13:49:12;;;;;;;13.88;8.02;;;;;;;;;;5052036;28;20116;-76
2023/04/18 13:51:38;;;;;;;16.27;6.75;;;;;;;;;;5036228;28;20439;-75
2023/04/18 13:54:04;;;;;;;14.05;7.82;;;;;;;;;;5035815;28;20754;-76
2023/04/18 13:56:30;;;;;;;12.60;7.10;;;;;;;;;;5053289;28;20378;-75
2023/04/18 13:58:56;;;;;;;11.82;8.10;;;;;;;;;;5035877;28;20029;-75
2023/04/18 14:01:22;;;;;;;13.68;7.50;;;;;;;;;;5055606;28;20111;-77
2023/04/18 14:03:48;;;;;;;14.52;8.40;;;;;;;;;;5056099;28;20555;-75
2023/04/18 14:06:14;;;;;;;12.80;7.57;;;;;;;;;;5049911;28;20025;-77
2023/04/18 14:08:40;;;;;;;12.68;7.90;;;;;;;;;;5035709;28;20056;-76
2023/04/18 14:11:06;;;;;;;12.70;8.45;;;;;;;;;;5056021;28;20025;-77
2023/04/18 14:13:32;;;;;;;13.30;7.68;;;;;;;;;;5039689;28;20024;-76
2023/04/18 14:15:59;;;;;;;12.02;7.43;;;;;;;;;;5053496;28;20762;-77
2023/04/18 14:18:25;;;;;;;13.07;6.40;;;;;;;;;;5036983;28;20441;-77
2023/04/18 14:20:52;;;;;;;12.23;8.38;;;;;;;;;;5054053;28;20075;-75
2023/04/18 14:23:18;;;;;;;12.60;7.15;;;;;;;;;;5034508;28;20021;-76
2023/04/18 14:25:44;;;;;;;16.63;8.68;;;;;;;;;;5034169;28;20116;-77
2023/04/18 14:28:11;;;;;;;12.82;8.05;;;;;;;;;;5070463;28;20101;-76
2023/04/18 14:30:38;;;;;;;11.77;7.55;;;;;;;;;;5062127;28;20024;-76